Time;durP1;ratioP1;P1;durP2;ratioP2;P2;SDS_P1;SDS_P2;PMS_P1;PMS_P2;Temp;Humidity;BMP_temperature;BMP_pressure;BME280_temperature;BME280_humidity;BME280_pressure;Samples;Min_cycle;Max_cycle;Signal;HPM_P1;HPM_P2
2024/02/05 00:00:13;;;;;;;7.40;2.90;;;;;;;11.10;54.67;100238.72;5057875;28;20020;-78
2024/02/05 00:02:40;;;;;;;7.13;3.47;;;;;;;11.15;54.23;100232.72;5089933;28;20105;-77
2024/02/05 00:05:12;;;;;;;6.15;2.90;;;;;;;11.16;54.34;100237.03;5070847;28;20063;-77
2024/02/05 00:07:38;;;;;;;7.63;3.25;;;;;;;10.88;55.11;100226.78;5077909;28;20033;-78
2024/02/05 00:10:07;;;;;;;5.53;2.92;;;;;;;10.88;54.93;100227.59;5072562;28;20031;-77
2024/02/05 00:12:33;;;;;;;5.38;2.72;;;;;;;10.84;54.84;100243.19;5051048;28;20082;-78
2024/02/05 00:14:59;;;;;;;5.72;3.20;;;;;;;10.81;55.37;100238.31;5069329;28;20040;-78
2024/02/05 00:17:25;;;;;;;5.82;3.45;;;;;;;10.74;55.10;100205.50;5065308;28;20066;-77
2024/02/05 00:19:52;;;;;;;7.18;3.28;;;;;;;10.73;55.38;100224.44;5089346;28;20025;-77
2024/02/05 00:22:17;;;;;;;5.43;2.65;;;;;;;10.50;55.83;100222.31;5069642;28;20036;-78
2024/02/05 00:24:42;;;;;;;7.57;2.80;;;;;;;10.63;55.68;100235.56;5050863;28;20028;-76
2024/02/05 00:27:08;;;;;;;5.38;2.55;;;;;;;10.70;55.32;100219.50;5068566;28;20024;-78
2024/02/05 00:29:33;;;;;;;6.20;2.65;;;;;;;10.71;55.15;100218.50;5050157;28;20031;-77
2024/02/05 00:31:59;;;;;;;3.47;1.92;;;;;;;10.70;54.36;100200.84;5056151;28;20035;-77
2024/02/05 00:34:25;;;;;;;5.30;2.25;;;;;;;10.75;54.59;100201.84;5069381;28;20024;-78
2024/02/05 00:36:51;;;;;;;5.55;2.60;;;;;;;10.85;54.36;100212.84;5068380;28;20097;-77
2024/02/05 00:39:16;;;;;;;4.82;2.03;;;;;;;10.90;53.59;100195.34;5068402;28;20335;-77
2024/02/05 00:41:42;;;;;;;3.65;1.95;;;;;;;10.89;52.98;100185.72;5080357;28;20024;-78
2024/02/05 00:44:07;;;;;;;3.63;1.80;;;;;;;10.97;53.38;100190.78;5070263;28;20105;-78
2024/02/05 00:46:33;;;;;;;4.70;2.22;;;;;;;11.05;52.47;100207.34;5088422;28;20467;-77
2024/02/05 00:48:59;;;;;;;4.97;2.03;;;;;;;10.93;52.45;100187.75;5083591;28;20036;-77
2024/02/05 00:51:25;;;;;;;4.95;2.00;;;;;;;11.02;52.47;100201.63;5087678;28;20050;-79
2024/02/05 00:53:51;;;;;;;3.30;1.70;;;;;;;11.13;51.53;100192.06;5068104;28;20032;-78
2024/02/05 00:56:17;;;;;;;4.82;2.05;;;;;;;11.18;52.22;100209.06;5067743;28;20028;-78
2024/02/05 00:58:43;;;;;;;5.43;1.90;;;;;;;11.25;51.42;100204.47;5076746;28;20059;-78
2024/02/05 01:01:09;;;;;;;3.30;1.63;;;;;;;11.17;51.52;100204.75;5085492;28;20409;-78
2024/02/05 01:03:35;;;;;;;3.72;1.60;;;;;;;11.13;51.45;100202.75;5088062;28;20039;-78
2024/02/05 01:06:01;;;;;;;4.30;1.77;;;;;;;11.10;51.46;100185.34;5087821;28;20024;-78
2024/02/05 01:08:26;;;;;;;3.70;1.65;;;;;;;11.17;51.10;100183.41;5087991;28;20420;-78
2024/02/05 01:10:52;;;;;;;4.72;2.20;;;;;;;11.03;51.75;100168.53;5087176;28;20086;-78
2024/02/05 01:13:19;;;;;;;3.35;1.77;;;;;;;10.99;51.39;100159.34;5087941;28;20032;-78
2024/02/05 01:15:44;;;;;;;3.88;1.80;;;;;;;10.95;51.92;100160.81;5069767;28;20028;-78
2024/02/05 01:18:10;;;;;;;2.65;1.50;;;;;;;11.11;51.71;100167.47;5079358;28;20024;-78
2024/02/05 01:20:35;;;;;;;5.50;2.13;;;;;;;11.21;51.43;100173.09;5083730;28;20119;-78
2024/02/05 01:23:01;;;;;;;3.53;1.80;;;;;;;10.92;51.98;100158.59;5086377;28;20054;-78
2024/02/05 01:25:26;;;;;;;3.90;1.90;;;;;;;11.06;52.18;100170.78;5087452;28;20099;-83
2024/02/05 01:27:51;;;;;;;4.28;1.70;;;;;;;11.15;51.56;100148.09;5087692;28;20089;-78
2024/02/05 01:30:18;;;;;;;4.35;1.70;;;;;;;11.05;51.80;100134.44;5087944;28;20032;-78
2024/02/05 01:32:43;;;;;;;3.92;1.90;;;;;;;10.97;52.36;100129.41;5085649;28;20024;-78
2024/02/05 01:35:09;;;;;;;4.30;1.95;;;;;;;10.76;53.28;100118.09;5087253;28;20028;-79
2024/02/05 01:37:35;;;;;;;4.72;2.08;;;;;;;10.70;54.12;100137.63;5087727;28;20036;-78
2024/02/05 01:40:00;;;;;;;5.00;2.22;;;;;;;10.51;54.57;100133.28;5087582;28;20024;-78
2024/02/05 01:42:26;;;;;;;5.53;2.80;;;;;;;10.34;55.31;100133.81;5086593;28;20051;-79
2024/02/05 01:44:52;;;;;;;7.85;4.32;;;;;;;10.31;55.68;100147.56;5086489;28;20036;-78
2024/02/05 01:47:19;;;;;;;9.88;4.28;;;;;;;10.27;55.54;100125.00;5087287;28;20141;-79
2024/02/05 01:49:47;;;;;;;10.02;3.80;;;;;;;10.18;56.06;100119.13;5068836;28;20447;-79
2024/02/05 01:52:16;;;;;;;;;;;;;;;10.25;55.74;100133.22;5060571;28;20024;-78
2024/02/05 01:54:42;;;;;;;6.53;3.47;;;;;;;10.00;57.14;100124.34;5086577;28;19916;-79
2024/02/05 01:57:10;;;;;;;8.40;3.80;;;;;;;10.19;56.63;100130.59;5087119;28;20470;-78
2024/02/05 01:59:36;;;;;;;;;;;;;;;10.14;57.33;100123.25;5077984;28;20485;-79
2024/02/05 02:02:02;;;;;;;8.25;4.22;;;;;;;10.16;57.07;100109.72;5067725;28;19927;-78
2024/02/05 02:04:28;;;;;;;19.83;13.43;;;;;;;10.06;56.93;100097.66;5069305;28;20026;-78
2024/02/05 02:06:54;;;;;;;29.08;23.58;;;;;;;9.54;57.94;100110.25;5087112;28;20028;-78
2024/02/05 02:09:19;;;;;;;32.70;27.48;;;;;;;9.27;59.44;100106.81;5081968;28;20554;-79
2024/02/05 02:11:45;;;;;;;17.77;13.95;;;;;;;9.04;61.04;100104.63;5085184;28;20036;-79
2024/02/05 02:14:10;;;;;;;16.33;12.52;;;;;;;9.05;61.04;100095.63;5087295;28;20054;-78
2024/02/05 02:16:36;;;;;;;8.98;5.35;;;;;;;9.10;61.54;100095.00;5087280;28;20058;-79
2024/02/05 02:19:09;;;;;;;11.68;5.80;;;;;;;9.11;61.91;100086.00;5068477;28;20027;-78
2024/02/05 02:21:34;;;;;;;20.67;13.38;;;;;;;8.95;61.96;100084.59;5065827;28;20535;-79
2024/02/05 02:24:01;;;;;;;27.75;19.90;;;;;;;8.72;62.10;100072.56;5066754;28;20582;-78
2024/02/05 02:26:26;;;;;;;11.38;6.38;;;;;;;8.91;62.66;100083.38;5067277;28;20115;-78
2024/02/05 02:28:52;;;;;;;27.80;19.33;;;;;;;8.91;62.62;100110.81;5073275;28;20081;-79
2024/02/05 02:31:20;;;;;;;11.82;6.30;;;;;;;8.83;63.19;100076.44;5086925;28;20090;-79
2024/02/05 02:33:58;;;;;;;12.95;9.57;;;;;;;8.74;62.71;100072.34;5067435;28;20052;-78
2024/02/05 02:36:28;;;;;;;12.82;7.80;;;;;;;8.71;63.33;100068.28;5067062;28;21032;-79
2024/02/05 02:39:11;;;;;;;7.00;4.22;;;;;;;8.92;63.72;100103.63;5066292;28;20082;-78
2024/02/05 02:41:42;;;;;;;9.10;4.03;;;;;;;8.57;63.81;100085.25;5085327;28;20060;-79
2024/02/05 02:44:07;;;;;;;8.13;4.63;;;;;;;8.51;64.01;100086.09;5086201;28;20032;-78
2024/02/05 02:46:34;;;;;;;7.43;4.10;;;;;;;8.68;63.28;100083.81;5086755;28;20028;-78
2024/02/05 02:48:59;;;;;;;8.60;4.78;;;;;;;8.56;64.10;100096.91;5081226;28;20401;-78
2024/02/05 02:51:27;;;;;;;7.55;4.53;;;;;;;8.58;64.57;100093.03;5048522;28;20033;-78
2024/02/05 02:53:53;;;;;;;6.63;3.65;;;;;;;8.60;64.31;100095.47;5064505;28;20024;-78
2024/02/05 02:56:19;;;;;;;6.90;3.58;;;;;;;8.56;64.12;100088.94;5069381;28;20721;-79
2024/02/05 02:58:45;;;;;;;6.72;3.72;;;;;;;8.36;64.41;100065.00;5088236;28;20473;-78
2024/02/05 03:01:10;;;;;;;7.32;3.92;;;;;;;8.42;64.59;100086.28;5070148;28;20024;-79
2024/02/05 03:03:36;;;;;;;6.80;3.70;;;;;;;8.39;64.42;100080.53;5073492;28;20071;-78
2024/02/05 03:06:01;;;;;;;27.52;9.20;;;;;;;8.08;65.37;100070.50;5070134;28;20031;-78
2024/02/05 03:08:27;;;;;;;10.32;4.53;;;;;;;7.96;65.70;100076.38;5070074;28;20033;-78
2024/02/05 03:10:53;;;;;;;8.52;3.53;;;;;;;7.87;66.37;100098.84;5089511;28;20110;-78
2024/02/05 03:13:19;;;;;;;8.00;3.70;;;;;;;7.67;66.79;100071.41;5078739;28;20036;-78
2024/02/05 03:15:45;;;;;;;9.13;4.20;;;;;;;7.36;67.56;100088.66;5070294;28;20037;-79
2024/02/05 03:18:11;;;;;;;11.73;4.20;;;;;;;7.35;67.54;100063.13;5070126;28;20028;-79
2024/02/05 03:20:38;;;;;;;31.92;20.55;;;;;;;7.53;67.67;100068.72;5070184;28;20035;-78
2024/02/05 03:23:06;;;;;;;25.50;15.87;;;;;;;7.76;67.52;100070.19;5077892;28;20111;-78
2024/02/05 03:25:35;;;;;;;25.25;15.32;;;;;;;7.65;68.46;100075.06;5090352;28;20024;-78
2024/02/05 03:28:01;;;;;;;32.05;17.60;;;;;;;7.29;68.90;100053.31;5071893;28;20040;-79
2024/02/05 03:30:30;;;;;;;17.42;9.52;;;;;;;7.61;68.93;100094.25;5058834;28;20109;-79
2024/02/05 03:32:56;;;;;;;11.95;7.15;;;;;;;7.62;68.42;100083.44;5072276;28;20036;-78
2024/02/05 03:35:23;;;;;;;18.08;7.80;;;;;;;7.48;69.04;100060.53;5051897;28;20027;-79
2024/02/05 03:37:48;;;;;;;15.15;7.72;;;;;;;7.53;69.89;100079.31;5069414;28;20032;-79
2024/02/05 03:40:14;;;;;;;14.75;8.73;;;;;;;7.60;69.97;100080.19;5051357;28;20409;-78
2024/02/05 03:42:39;;;;;;;20.08;10.00;;;;;;;7.51;70.20;100061.97;5072534;28;20032;-80
2024/02/05 03:45:05;;;;;;;16.15;8.15;;;;;;;7.68;69.88;100062.44;5089891;28;20400;-78
2024/02/05 03:47:30;;;;;;;29.25;15.57;;;;;;;7.61;69.33;100052.59;5089410;28;20028;-78
2024/02/05 03:49:56;;;;;;;34.88;19.95;;;;;;;7.42;71.38;100058.69;5089622;28;20088;-78
2024/02/05 03:52:22;;;;;;;35.72;19.70;;;;;;;7.29;71.13;100045.34;5088494;28;20744;-79
2024/02/05 03:54:47;;;;;;;32.63;18.20;;;;;;;7.60;70.72;100051.00;5088502;28;20036;-78
2024/02/05 03:57:13;;;;;;;27.52;16.20;;;;;;;7.81;69.75;100052.66;5089642;28;20397;-78
2024/02/05 03:59:39;;;;;;;23.77;13.63;;;;;;;7.86;69.28;100038.78;5085692;28;20035;-78
2024/02/05 04:02:04;;;;;;;27.45;14.95;;;;;;;7.89;68.63;100054.31;5068622;28;20025;-78
2024/02/05 04:04:30;;;;;;;36.78;22.02;;;;;;;7.93;68.61;100042.28;5066421;28;20039;-79
2024/02/05 04:06:56;;;;;;;27.40;16.38;;;;;;;7.81;68.94;100062.47;5089364;28;20550;-78
2024/02/05 04:09:21;;;;;;;31.60;18.50;;;;;;;7.85;68.49;100047.78;5088479;28;20053;-78
2024/02/05 04:11:47;;;;;;;61.83;29.40;;;;;;;7.63;69.30;100023.22;5068860;28;20040;-79
2024/02/05 04:14:12;;;;;;;35.67;15.90;;;;;;;7.95;68.15;100031.47;5071836;28;20033;-79
2024/02/05 04:16:38;;;;;;;46.10;20.25;;;;;;;8.07;68.15;100029.00;5068440;28;20067;-79
2024/02/05 04:19:03;;;;;;;30.55;15.35;;;;;;;8.13;68.02;100036.16;5069246;28;20025;-79
2024/02/05 04:21:28;;;;;;;24.48;12.68;;;;;;;8.34;67.62;100037.81;5068595;28;20115;-78
2024/02/05 04:23:54;;;;;;;14.77;8.63;;;;;;;8.48;66.84;100031.50;5071184;28;20024;-77
2024/02/05 04:26:19;;;;;;;9.55;5.85;;;;;;;8.67;65.85;100018.38;5050776;28;20039;-78
2024/02/05 04:28:47;;;;;;;9.10;4.80;;;;;;;8.95;65.25;100047.34;5051026;28;20028;-77
2024/02/05 04:31:14;;;;;;;7.30;4.57;;;;;;;8.95;65.04;100042.03;5069078;28;20032;-79
2024/02/05 04:33:40;;;;;;;27.63;11.63;;;;;;;9.22;64.08;100048.91;5070990;28;20028;-78
2024/02/05 04:36:15;;;;;;;16.63;8.25;;;;;;;9.06;64.02;100044.06;5068440;28;20031;-79
2024/02/05 04:38:41;;;;;;;12.10;5.80;;;;;;;9.28;63.65;100062.44;5050633;28;20437;-78
2024/02/05 04:41:10;;;;;;;19.52;10.07;;;;;;;9.10;63.81;100024.00;5061583;28;20036;-79
2024/02/05 04:43:40;;;;;;;7.13;3.83;;;;;;;9.06;63.92;100044.06;5066810;28;20034;-78
2024/02/05 04:46:07;;;;;;;8.32;4.35;;;;;;;9.02;64.02;100056.16;5050630;28;20024;-78
2024/02/05 04:48:33;;;;;;;7.88;4.25;;;;;;;9.08;62.79;100050.00;5068055;28;20028;-78
2024/02/05 04:50:59;;;;;;;7.80;4.07;;;;;;;8.96;63.70;100051.66;5069497;28;20040;-79
2024/02/05 04:53:25;;;;;;;8.23;4.35;;;;;;;8.54;64.71;100045.78;5070601;28;20048;-78
2024/02/05 04:55:50;;;;;;;7.88;4.30;;;;;;;8.32;65.18;100058.47;5069073;28;20409;-78
2024/02/05 04:58:16;;;;;;;7.97;4.85;;;;;;;8.03;66.16;100039.22;5068111;28;20077;-77
2024/02/05 05:00:41;;;;;;;6.25;4.00;;;;;;;8.17;66.00;100062.13;5068001;28;20028;-78
2024/02/05 05:03:07;;;;;;;8.35;3.92;;;;;;;8.29;66.04;100054.34;5068016;28;20036;-78
2024/02/05 05:05:32;;;;;;;9.20;5.68;;;;;;;8.18;65.34;100042.50;5083527;28;20382;-79
2024/02/05 05:07:57;;;;;;;7.65;4.45;;;;;;;8.33;64.56;100044.13;5088017;28;20099;-78
2024/02/05 05:10:23;;;;;;;12.90;6.45;;;;;;;8.23;64.80;100047.19;5069460;28;20047;-78
2024/02/05 05:12:48;;;;;;;11.73;5.90;;;;;;;8.10;65.25;100052.50;5088218;28;20050;-79
2024/02/05 05:15:15;;;;;;;12.68;6.05;;;;;;;8.18;65.25;100066.41;5083312;28;20082;-78
2024/02/05 05:17:41;;;;;;;9.82;5.07;;;;;;;8.12;66.19;100053.13;5088184;28;20056;-78
2024/02/05 05:20:07;;;;;;;8.35;5.13;;;;;;;8.02;65.37;100083.53;5087276;28;20062;-78
2024/02/05 05:22:32;;;;;;;11.88;7.60;;;;;;;8.03;65.50;100055.97;5087535;28;20118;-78
2024/02/05 05:24:58;;;;;;;19.17;8.20;;;;;;;8.01;66.18;100047.41;5068914;28;20027;-78
2024/02/05 05:27:23;;;;;;;13.52;7.53;;;;;;;7.88;65.70;100051.88;5069624;28;20035;-78
2024/02/05 05:29:49;;;;;;;14.50;8.15;;;;;;;7.84;66.41;100057.56;5069435;28;20031;-78
2024/02/05 05:32:14;;;;;;;13.95;8.55;;;;;;;8.00;66.31;100043.09;5087982;28;20119;-78
2024/02/05 05:34:40;;;;;;;15.88;8.10;;;;;;;8.23;64.83;100060.47;5085517;28;20386;-78
2024/02/05 05:37:06;;;;;;;19.30;11.15;;;;;;;8.14;65.29;100067.03;5069102;28;20028;-79
2024/02/05 05:39:31;;;;;;;20.80;11.32;;;;;;;8.05;65.25;100059.25;5087295;28;20024;-79
2024/02/05 05:41:56;;;;;;;43.38;24.42;;;;;;;8.04;64.30;100031.03;5060501;28;20035;-79
2024/02/05 05:44:22;;;;;;;27.95;16.17;;;;;;;8.32;64.46;100055.81;5077409;28;20039;-78
2024/02/05 05:46:47;;;;;;;22.77;11.68;;;;;;;8.24;64.91;100051.50;5078449;28;20082;-78
2024/02/05 05:49:12;;;;;;;9.50;4.85;;;;;;;8.38;65.08;100074.41;5078076;28;20031;-78
2024/02/05 05:51:38;;;;;;;6.97;3.85;;;;;;;8.48;64.90;100046.59;5080840;28;20130;-80
2024/02/05 05:54:03;;;;;;;8.93;4.63;;;;;;;8.39;64.81;100043.31;5068577;28;20097;-78
2024/02/05 05:56:29;;;;;;;23.70;12.25;;;;;;;7.41;66.40;100014.56;5086533;28;20071;-78
2024/02/05 05:58:54;;;;;;;22.65;12.57;;;;;;;7.63;67.25;100034.66;5087227;28;20103;-78
2024/02/05 06:01:20;;;;;;;22.70;13.52;;;;;;;7.75;66.55;100034.88;5064516;28;20028;-79
2024/02/05 06:03:45;;;;;;;27.45;14.68;;;;;;;7.96;66.36;100033.91;5067365;28;20044;-78
2024/02/05 06:06:11;;;;;;;17.30;9.68;;;;;;;8.33;65.13;100044.94;5051197;28;20127;-78
2024/02/05 06:08:36;;;;;;;11.50;7.00;;;;;;;8.60;63.40;100034.31;5067911;28;20493;-78
2024/02/05 06:11:02;;;;;;;12.82;6.53;;;;;;;8.84;62.70;100031.00;5049236;28;20458;-79
2024/02/05 06:13:27;;;;;;;7.97;4.85;;;;;;;8.84;62.83;100036.31;5067401;28;20028;-78
2024/02/05 06:15:53;;;;;;;8.65;4.72;;;;;;;9.13;62.67;100054.69;5069690;28;20029;-78
2024/02/05 06:18:19;;;;;;;10.27;6.65;;;;;;;9.21;61.90;100044.63;5066921;28;20020;-78
2024/02/05 06:20:44;;;;;;;9.23;4.85;;;;;;;9.48;61.05;100057.84;5067201;28;20024;-78
2024/02/05 06:23:09;;;;;;;7.95;4.68;;;;;;;9.62;60.86;100048.75;5049633;28;20049;-78
2024/02/05 06:25:35;;;;;;;7.38;4.20;;;;;;;9.70;60.58;100036.22;5059402;28;20138;-78
2024/02/05 06:28:00;;;;;;;9.13;3.90;;;;;;;9.92;59.47;100058.00;5086992;28;20028;-78
2024/02/05 06:30:27;;;;;;;7.47;3.50;;;;;;;10.02;58.88;100051.16;5069265;28;20493;-78
2024/02/05 06:32:53;;;;;;;6.43;3.13;;;;;;;10.20;58.02;100039.78;5077667;28;20066;-79
2024/02/05 06:35:18;;;;;;;5.70;2.92;;;;;;;10.53;57.42;100054.69;5079107;28;20028;-78
2024/02/05 06:37:44;;;;;;;6.82;2.92;;;;;;;10.44;56.85;100056.00;5082458;28;20028;-76
2024/02/05 06:40:09;;;;;;;7.72;3.35;;;;;;;10.78;55.89;100046.66;5081497;28;20028;-78
2024/02/05 06:42:35;;;;;;;5.38;3.00;;;;;;;11.06;55.86;100054.19;5065345;28;20036;-78
2024/02/05 06:45:01;;;;;;;5.68;2.53;;;;;;;11.11;55.95;100080.19;5090466;28;20077;-79
2024/02/05 06:47:27;;;;;;;7.32;2.95;;;;;;;11.42;54.80;100078.41;5090866;28;20540;-78
2024/02/05 06:49:52;;;;;;;7.03;2.53;;;;;;;11.51;54.55;100085.09;5072545;28;20103;-78
2024/02/05 06:52:19;;;;;;;9.73;4.40;;;;;;;11.34;55.30;100086.72;5083341;28;20532;-78
2024/02/05 06:54:45;;;;;;;8.75;4.60;;;;;;;11.49;54.57;100065.78;5080127;28;20493;-79
2024/02/05 06:57:10;;;;;;;9.32;5.25;;;;;;;11.55;54.44;100064.91;5083597;28;20024;-78
2024/02/05 06:59:36;;;;;;;14.68;6.20;;;;;;;11.52;55.12;100067.19;5079740;28;20027;-78
2024/02/05 07:02:01;;;;;;;20.55;7.93;;;;;;;11.63;55.00;100067.25;5065844;28;20107;-78
2024/02/05 07:04:26;;;;;;;11.57;5.53;;;;;;;11.74;54.76;100091.56;5079253;28;20587;-77
2024/02/05 07:06:52;;;;;;;6.57;3.13;;;;;;;11.82;54.65;100084.06;5065096;28;20058;-78
2024/02/05 07:09:17;;;;;;;6.30;3.08;;;;;;;11.85;54.43;100093.50;5077793;28;20110;-79
2024/02/05 07:11:43;;;;;;;5.70;2.47;;;;;;;11.96;54.72;100089.25;5079057;28;20711;-76
2024/02/05 07:14:08;;;;;;;6.28;2.58;;;;;;;11.99;54.87;100073.59;5080592;28;20021;-78
2024/02/05 07:16:34;;;;;;;6.93;2.72;;;;;;;12.30;54.16;100074.38;5080587;28;20062;-78
2024/02/05 07:18:59;;;;;;;7.18;2.83;;;;;;;12.37;52.89;100067.03;5078378;28;20020;-78
2024/02/05 07:21:25;;;;;;;5.05;2.40;;;;;;;12.44;52.69;100059.72;5080407;28;20114;-77
2024/02/05 07:23:50;;;;;;;9.85;3.53;;;;;;;12.38;53.57;100055.31;5080678;28;20101;-76
2024/02/05 07:26:17;;;;;;;8.45;3.20;;;;;;;12.35;53.85;100071.78;5079922;28;20425;-77
2024/02/05 07:28:44;;;;;;;5.47;2.60;;;;;;;12.48;53.45;100080.66;5078201;28;20021;-77
2024/02/05 07:31:10;;;;;;;5.43;2.92;;;;;;;12.30;53.54;100042.28;5062603;28;20036;-77
2024/02/05 07:33:35;;;;;;;6.45;2.53;;;;;;;12.65;53.26;100076.25;5076760;28;20034;-77
2024/02/05 07:36:01;;;;;;;7.93;3.03;;;;;;;12.83;52.04;100061.94;5085812;28;20111;-77
2024/02/05 07:38:26;;;;;;;5.78;2.83;;;;;;;13.02;49.79;100086.72;5051800;28;20032;-77
2024/02/05 07:40:51;;;;;;;8.95;2.58;;;;;;;13.15;49.21;100075.75;5069364;28;20052;-76
2024/02/05 07:43:17;;;;;;;8.43;2.80;;;;;;;13.38;49.11;100074.09;5069133;28;20044;-76
2024/02/05 07:45:42;;;;;;;6.28;2.50;;;;;;;13.66;46.36;100074.13;5072044;28;20099;-77
2024/02/05 07:48:09;;;;;;;7.03;2.20;;;;;;;13.99;47.05;100085.97;5071434;28;20489;-76
2024/02/05 07:50:35;;;;;;;4.90;2.13;;;;;;;14.25;45.59;100095.28;5089585;28;20035;-76
2024/02/05 07:53:01;;;;;;;6.90;2.63;;;;;;;14.22;44.27;100085.06;5089538;28;20027;-76
2024/02/05 07:55:27;;;;;;;10.15;2.42;;;;;;;14.40;44.78;100100.09;5089105;28;20020;-77
2024/02/05 07:57:52;;;;;;;6.53;2.13;;;;;;;14.28;44.55;100099.34;5089076;28;20054;-76
2024/02/05 08:00:18;;;;;;;4.40;2.00;;;;;;;14.18;43.44;100083.91;5089630;28;20032;-77
2024/02/05 08:02:43;;;;;;;10.15;2.85;;;;;;;14.24;44.69;100095.53;5085755;28;20421;-77
2024/02/05 08:05:09;;;;;;;4.97;2.60;;;;;;;14.30;44.43;100083.81;5069391;28;20039;-77
2024/02/05 08:07:35;;;;;;;5.20;2.80;;;;;;;14.53;43.96;100082.88;5051602;28;20040;-76
2024/02/05 08:10:01;;;;;;;8.65;3.50;;;;;;;14.79;44.04;100105.59;5069507;28;20126;-76
2024/02/05 08:12:26;;;;;;;7.30;3.60;;;;;;;14.84;44.02;100075.31;5069090;28;20118;-78
2024/02/05 08:14:51;;;;;;;10.35;4.60;;;;;;;15.21;43.40;100086.28;5069129;28;20036;-77
2024/02/05 08:17:17;;;;;;;8.95;3.63;;;;;;;15.22;43.70;100089.78;5071494;28;20101;-78
2024/02/05 08:19:42;;;;;;;10.20;4.75;;;;;;;15.35;40.24;100094.00;5071483;28;21126;-78
2024/02/05 08:22:09;;;;;;;16.23;7.65;;;;;;;15.30;41.47;100091.22;5050628;28;20035;-77
2024/02/05 08:24:34;;;;;;;16.65;7.68;;;;;;;15.64;41.47;100095.41;5068883;28;20118;-78
2024/02/05 08:27:00;;;;;;;10.95;4.88;;;;;;;15.74;39.03;100067.06;5069050;28;20599;-77
2024/02/05 08:29:26;;;;;;;11.88;4.70;;;;;;;16.06;40.06;100094.81;5069266;28;20028;-78
2024/02/05 08:31:52;;;;;;;10.25;4.90;;;;;;;16.38;38.81;100068.97;5050487;28;20056;-77
2024/02/05 08:34:17;;;;;;;14.13;5.32;;;;;;;16.66;37.70;100084.00;5068699;28;20039;-77
2024/02/05 08:36:43;;;;;;;8.57;4.32;;;;;;;16.98;37.50;100080.44;5074168;28;20508;-78
2024/02/05 08:39:10;;;;;;;8.15;3.50;;;;;;;17.15;35.77;100073.00;5070470;28;20165;-78
2024/02/05 08:41:36;;;;;;;9.07;3.60;;;;;;;17.35;35.30;100074.19;5088828;28;20048;-77
2024/02/05 08:44:02;;;;;;;7.15;3.35;;;;;;;17.59;33.82;100086.13;5078738;28;20182;-78
2024/02/05 08:46:27;;;;;;;9.60;4.05;;;;;;;17.75;34.30;100107.75;5070753;28;20036;-78
2024/02/05 08:48:53;;;;;;;11.07;4.78;;;;;;;17.75;33.67;100064.59;5087651;28;20068;-78
2024/02/05 08:51:18;;;;;;;13.30;4.35;;;;;;;17.89;32.77;100100.78;5087702;28;20081;-77
2024/02/05 08:53:46;;;;;;;7.95;3.88;;;;;;;17.89;32.31;100089.19;5086613;28;20036;-78
2024/02/05 08:56:11;;;;;;;7.65;3.67;;;;;;;17.86;33.18;100096.75;5087471;28;20024;-78
2024/02/05 08:58:36;;;;;;;7.13;3.53;;;;;;;17.86;32.49;100091.34;5087871;28;20043;-77
2024/02/05 09:01:02;;;;;;;9.38;4.03;;;;;;;17.76;32.93;100085.91;5083531;28;20037;-77
2024/02/05 09:03:28;;;;;;;9.18;4.43;;;;;;;17.78;32.64;100091.03;5082344;28;20021;-78
2024/02/05 09:05:53;;;;;;;9.70;3.72;;;;;;;17.81;32.21;100099.38;5066001;28;20037;-77
2024/02/05 09:08:19;;;;;;;6.47;3.53;;;;;;;17.66;32.29;100091.28;5078711;28;20502;-78
2024/02/05 09:10:44;;;;;;;10.15;3.92;;;;;;;17.74;32.24;100103.44;5076993;28;20033;-78
2024/02/05 09:13:10;;;;;;;9.75;5.47;;;;;;;17.95;31.49;100110.50;5075986;28;20840;-78
2024/02/05 09:15:43;;;;;;;8.98;5.13;;;;;;;18.18;31.43;100108.41;5063966;28;20469;-77
2024/02/05 09:18:09;;;;;;;9.02;5.35;;;;;;;18.25;31.23;100093.56;5051573;28;20033;-77
2024/02/05 09:20:36;;;;;;;11.82;6.10;;;;;;;18.53;31.10;100109.50;5053042;28;20065;-77
2024/02/05 09:23:02;;;;;;;9.45;5.63;;;;;;;18.49;30.62;100087.63;5054347;28;20033;-76
2024/02/05 09:25:27;;;;;;;13.75;6.40;;;;;;;18.42;30.59;100069.00;5048861;28;20031;-77
2024/02/05 09:27:53;;;;;;;11.85;5.55;;;;;;;18.51;30.80;100084.66;5039200;28;20041;-77
2024/02/05 09:30:21;;;;;;;7.20;3.38;;;;;;;18.22;30.30;100069.00;5024157;28;20113;-77
2024/02/05 09:32:47;;;;;;;8.00;4.00;;;;;;;18.47;31.13;100063.59;5036112;28;20048;-77
2024/02/05 09:35:13;;;;;;;5.90;3.55;;;;;;;18.91;30.29;100072.19;5040185;28;20029;-78
2024/02/05 09:37:38;;;;;;;8.52;4.07;;;;;;;18.76;30.51;100038.72;5032866;28;20414;-78
2024/02/05 09:40:04;;;;;;;9.65;5.60;;;;;;;19.45;29.97;100060.63;5044319;28;20737;-76
2024/02/05 09:42:31;;;;;;;10.50;6.18;;;;;;;19.49;29.16;100080.63;5043804;28;20758;-76
2024/02/05 09:44:57;;;;;;;8.32;5.35;;;;;;;19.49;29.38;100069.81;5035347;28;20040;-77
2024/02/05 09:47:22;;;;;;;10.93;6.22;;;;;;;19.37;29.30;100053.94;5044113;28;20056;-77
2024/02/05 09:49:48;;;;;;;13.07;7.63;;;;;;;19.29;29.05;100073.44;5044017;28;20029;-76
2024/02/05 09:52:15;;;;;;;12.77;8.32;;;;;;;19.03;29.27;100056.50;5043762;28;20040;-77
2024/02/05 09:54:43;;;;;;;10.75;6.50;;;;;;;19.14;29.51;100070.78;5043629;28;20037;-77
2024/02/05 09:57:11;;;;;;;10.10;5.75;;;;;;;19.62;28.67;100071.91;5042548;28;20041;-76
2024/02/05 09:59:40;;;;;;;13.63;6.75;;;;;;;19.86;28.53;100055.84;5041975;28;20044;-76
2024/02/05 10:02:07;;;;;;;11.30;5.78;;;;;;;19.82;28.18;100059.41;5023804;28;20029;-76
2024/02/05 10:04:43;;;;;;;8.80;5.10;;;;;;;19.66;28.02;100039.72;5027948;28;20120;-78
2024/02/05 10:07:15;;;;;;;16.63;7.57;;;;;;;19.81;27.97;100033.41;5054472;28;20486;-77
2024/02/05 10:09:42;;;;;;;14.13;7.13;;;;;;;20.52;27.79;100044.78;5033689;28;20107;-76
2024/02/05 10:12:12;;;;;;;10.30;5.13;;;;;;;20.31;27.24;100042.25;5024313;28;20113;-78
2024/02/05 10:14:40;;;;;;;11.20;5.78;;;;;;;20.10;27.84;100044.28;5028579;28;20049;-78
2024/02/05 10:17:05;;;;;;;10.43;4.47;;;;;;;19.92;27.58;100037.69;5044292;28;20032;-77
2024/02/05 10:19:32;;;;;;;10.90;3.80;;;;;;;19.63;27.39;100008.59;5043257;28;20426;-77
2024/02/05 10:21:57;;;;;;;9.15;5.30;;;;;;;19.94;28.06;100024.69;5043281;28;20079;-76
2024/02/05 10:24:23;;;;;;;9.10;4.60;;;;;;;19.65;28.32;100001.00;5044542;28;20052;-76
2024/02/05 10:26:48;;;;;;;12.77;4.40;;;;;;;19.86;28.10;100011.75;5050102;28;20025;-76
2024/02/05 10:29:15;;;;;;;8.40;3.70;;;;;;;19.99;27.95;100021.91;5032898;28;20481;-78
2024/02/05 10:31:51;;;;;;;8.15;3.90;;;;;;;19.84;28.32;99997.69;5012884;28;20582;-78
2024/02/05 10:34:24;;;;;;;9.52;4.20;;;;;;;19.79;28.66;100008.53;5015737;28;20192;-77
2024/02/05 10:36:50;;;;;;;8.98;4.50;;;;;;;19.68;28.42;99986.13;5038218;28;20031;-77
2024/02/05 10:39:23;;;;;;;9.73;4.45;;;;;;;19.49;28.77;99985.97;5034184;28;20053;-78
2024/02/05 10:41:49;;;;;;;10.90;4.03;;;;;;;19.44;28.55;99986.81;5029177;28;20031;-77
2024/02/05 10:44:15;;;;;;;8.10;4.32;;;;;;;19.61;28.87;99967.50;5026805;28;20035;-77
2024/02/05 10:46:41;;;;;;;8.98;4.72;;;;;;;19.70;28.46;99985.88;5036090;28;20028;-78
2024/02/05 10:49:08;;;;;;;7.32;3.20;;;;;;;20.03;28.19;99958.00;5033336;28;20112;-77
2024/02/05 10:51:35;;;;;;;6.68;2.92;;;;;;;20.37;27.74;99935.50;5029660;28;20132;-78
2024/02/05 10:54:01;;;;;;;;;;;;;;;20.89;27.23;99967.44;5029883;28;20071;-77
2024/02/05 10:56:29;;;;;;;8.15;4.20;;;;;;;21.24;27.05;99942.56;5029666;28;19921;-76
2024/02/05 10:58:59;;;;;;;6.90;2.83;;;;;;;21.48;26.53;99940.91;5029256;28;20033;-77
2024/02/05 11:01:30;;;;;;;5.05;2.50;;;;;;;21.36;26.24;99960.31;5029062;28;20465;-77
2024/02/05 11:04:02;;;;;;;5.10;2.10;;;;;;;21.40;26.69;99950.50;5029053;28;20029;-76
2024/02/05 11:06:33;;;;;;;5.78;2.88;;;;;;;21.23;26.28;99929.31;5024436;28;20421;-77
2024/02/05 11:09:01;;;;;;;6.75;3.25;;;;;;;21.06;26.18;99916.25;5029338;28;20031;-78
2024/02/05 11:11:27;;;;;;;6.53;3.47;;;;;;;21.20;26.24;99922.53;5027600;28;20040;-78
2024/02/05 11:13:58;;;;;;;6.80;3.25;;;;;;;21.84;25.70;99946.56;5028739;28;20145;-77
2024/02/05 11:16:25;;;;;;;8.75;4.07;;;;;;;22.14;26.09;99930.84;5022643;28;20453;-77
2024/02/05 11:18:56;;;;;;;9.70;4.83;;;;;;;22.22;25.28;99943.75;5028770;28;20045;-77